28 minutes ago
Runway Headwind Crosswind Length
9/27 2 kt 7 kt 3,937 ft
METAR EHLE 151755Z AUTO 02008KT 9999 NSC 08/00 Q1030 NOSIG

METAR definition | Embed

METAR Aero Club Salland

Aero Club Salland is a gliderfield in Lemelerveld, The Netherlands. The airport has one runway: 9/27 (3,937 ft)

Aero Club Salland didn't publish observations recently. Instead, we show you the report of Lelystad Airport which is 34 mi away. This report was made on April 15, 2021 7:55 pm, local time.

Airport observations

The wind is from direction northnortheast (020°) with a speed of 8 kt.

Visibility is 6¼ mi or more.

There are no significant clouds are observed. No ceiling has been observed.

The temperature is 46 °F, with a wind chill of 39 °F. The air pressure at sea level is 30.42 inHg (QNH).

Daylight period

Today the sun rises at 6:36 am and sets at 8:33 pm. This applies to Aero Club Salland, the universal daylight period may be different. The difference between the local time and UTC is +2 hour. Daylight saving time is currently in progress.

Historical data

Donate

Will you help us to keep Metar-Taf.com running?
Your contribution helps further development of the site and to pay for the expenses.

No more ads

Are you donating $ 5 or more? Then we'll never show you ads again, as a token of our eternal gratitude!
Log in before you donate

Do you want the flying weather of Aero Club Salland on your website? Read more   Free!